Other Surface Observations
Issued by NWS Great Falls, MT

Home | Current Version | Previous Version | Text Only | Print | Product List | Glossary On
Versions: 1 2 3 4 5 6 7 8 9 10 11 12 13 14 15 16 17 18 19 20 21 22 23 24 25 26 27 28 29 30 31 32 33 34 35 36 37 38 39 40 41 42 43 44 45 46 47 48 49 50
000
SXUS55 KTFX 170051
OSOTFX

AREA AWOS OBSERVATIONS
NATIONAL WEATHER SERVICE GREAT FALLS MT
0650 PM MDT Wed Apr 16 2014

METAR K1S3 170045Z AUTO 08006KT 10SM 05/M03 A3007
METAR K38S 170045Z AUTO 28010G15KT 10SM 08/M06 A3001
METAR K6S0 170045Z AUTO 03007KT 10SM 05/M02 A2999
METAR K6S5 170045Z AUTO 28004KT 10SM 10/M04 A2999
METAR K79S 170045Z AUTO 08005KT 08/M02 A3000
METAR K88M 170045Z AUTO 18007KT 10SM 11/M02 A2992
METAR KEKS 170045Z AUTO 28010G15KT 10SM 08/M11 A3002
METAR KPO1 170045Z AUTO 06010KT 8SM M01/M07 A3021
METAR KPWD 170045Z AUTO 11010KT 10SM M03/M08 A3023
METAR KS59 170045Z AUTO 00000KT 10SM 11/M01 A2996
METAR KS71 170045Z AUTO 10010KT 10SM 06/M04 A3005



USA.gov is the U.S. government's official web portal to all federal, state and local government web resources and services.